sensor_id;sensor_type;location;lat;lon;timestamp;P1;durP1;ratioP1;P2;durP2;ratioP2
21843;SDS011;11084;52.482;9.108;2023-02-15T00:02:19;3.07;;;1.80;;
21843;SDS011;11084;52.482;9.108;2023-02-15T00:04:46;17.00;;;3.30;;
21843;SDS011;11084;52.482;9.108;2023-02-15T00:07:17;16.73;;;2.40;;
21843;SDS011;11084;52.482;9.108;2023-02-15T00:09:48;3.03;;;2.20;;
21843;SDS011;11084;52.482;9.108;2023-02-15T00:12:15;2.27;;;2.07;;
21843;SDS011;11084;52.482;9.108;2023-02-15T00:14:41;4.83;;;3.20;;
21843;SDS011;11084;52.482;9.108;2023-02-15T00:17:07;4.27;;;1.83;;
21843;SDS011;11084;52.482;9.108;2023-02-15T00:19:33;7.93;;;2.73;;
21843;SDS011;11084;52.482;9.108;2023-02-15T00:22:00;4.00;;;3.20;;
21843;SDS011;11084;52.482;9.108;2023-02-15T00:24:25;11.10;;;2.63;;
21843;SDS011;11084;52.482;9.108;2023-02-15T00:26:52;2.93;;;2.17;;
21843;SDS011;11084;52.482;9.108;2023-02-15T00:29:18;4.53;;;2.73;;
21843;SDS011;11084;52.482;9.108;2023-02-15T00:31:45;3.90;;;2.37;;
21843;SDS011;11084;52.482;9.108;2023-02-15T00:34:16;2.63;;;2.17;;
21843;SDS011;11084;52.482;9.108;2023-02-15T00:36:51;8.33;;;1.83;;
21843;SDS011;11084;52.482;9.108;2023-02-15T00:39:17;3.60;;;2.77;;
21843;SDS011;11084;52.482;9.108;2023-02-15T00:41:44;8.03;;;3.30;;
21843;SDS011;11084;52.482;9.108;2023-02-15T00:44:11;2.90;;;2.10;;
21843;SDS011;11084;52.482;9.108;2023-02-15T00:46:39;3.03;;;2.40;;
21843;SDS011;11084;52.482;9.108;2023-02-15T00:49:08;4.00;;;2.27;;
21843;SDS011;11084;52.482;9.108;2023-02-15T00:51:34;5.00;;;3.07;;
21843;SDS011;11084;52.482;9.108;2023-02-15T00:54:01;3.57;;;1.90;;
21843;SDS011;11084;52.482;9.108;2023-02-15T00:56:28;2.23;;;1.90;;
21843;SDS011;11084;52.482;9.108;2023-02-15T00:58:54;2.97;;;2.07;;
21843;SDS011;11084;52.482;9.108;2023-02-15T01:01:20;3.87;;;2.87;;
21843;SDS011;11084;52.482;9.108;2023-02-15T01:03:47;3.53;;;2.17;;
21843;SDS011;11084;52.482;9.108;2023-02-15T01:06:14;3.17;;;2.23;;
21843;SDS011;11084;52.482;9.108;2023-02-15T01:08:42;3.33;;;2.40;;
21843;SDS011;11084;52.482;9.108;2023-02-15T01:11:11;4.17;;;2.47;;
21843;SDS011;11084;52.482;9.108;2023-02-15T01:13:48;2.47;;;2.20;;
21843;SDS011;11084;52.482;9.108;2023-02-15T01:16:16;3.10;;;2.50;;
21843;SDS011;11084;52.482;9.108;2023-02-15T01:18:42;4.20;;;2.80;;
21843;SDS011;11084;52.482;9.108;2023-02-15T01:21:09;4.00;;;2.20;;
21843;SDS011;11084;52.482;9.108;2023-02-15T01:23:44;3.23;;;2.20;;
21843;SDS011;11084;52.482;9.108;2023-02-15T01:26:11;4.00;;;2.70;;
21843;SDS011;11084;52.482;9.108;2023-02-15T01:28:38;3.30;;;2.57;;
21843;SDS011;11084;52.482;9.108;2023-02-15T01:31:09;5.00;;;2.83;;
21843;SDS011;11084;52.482;9.108;2023-02-15T01:33:38;5.00;;;2.43;;
21843;SDS011;11084;52.482;9.108;2023-02-15T01:36:05;2.73;;;2.10;;
21843;SDS011;11084;52.482;9.108;2023-02-15T01:38:34;3.23;;;2.20;;
21843;SDS011;11084;52.482;9.108;2023-02-15T01:41:00;2.67;;;1.97;;
21843;SDS011;11084;52.482;9.108;2023-02-15T01:43:46;2.57;;;2.37;;
21843;SDS011;11084;52.482;9.108;2023-02-15T01:46:33;3.80;;;2.63;;
21843;SDS011;11084;52.482;9.108;2023-02-15T01:49:11;1.47;;;1.37;;
21843;SDS011;11084;52.482;9.108;2023-02-15T01:51:42;1.87;;;1.67;;
21843;SDS011;11084;52.482;9.108;2023-02-15T01:56:45;2.43;;;1.73;;
21843;SDS011;11084;52.482;9.108;2023-02-15T01:59:15;2.90;;;1.63;;
21843;SDS011;11084;52.482;9.108;2023-02-15T02:01:45;4.13;;;2.40;;
21843;SDS011;11084;52.482;9.108;2023-02-15T02:04:19;2.23;;;2.03;;
21843;SDS011;11084;52.482;9.108;2023-02-15T02:06:57;3.27;;;2.00;;
21843;SDS011;11084;52.482;9.108;2023-02-15T02:09:25;3.77;;;2.93;;
21843;SDS011;11084;52.482;9.108;2023-02-15T02:11:51;4.67;;;1.60;;
21843;SDS011;11084;52.482;9.108;2023-02-15T02:14:19;5.93;;;2.87;;
21843;SDS011;11084;52.482;9.108;2023-02-15T02:16:49;4.03;;;2.67;;
21843;SDS011;11084;52.482;9.108;2023-02-15T02:34:43;3.10;;;2.87;;
21843;SDS011;11084;52.482;9.108;2023-02-15T02:37:46;3.87;;;2.23;;
21843;SDS011;11084;52.482;9.108;2023-02-15T02:45:55;2.73;;;2.47;;
21843;SDS011;11084;52.482;9.108;2023-02-15T02:48:31;4.27;;;2.80;;
21843;SDS011;11084;52.482;9.108;2023-02-15T02:50:58;6.03;;;2.67;;
21843;SDS011;11084;52.482;9.108;2023-02-15T02:53:25;3.43;;;2.53;;
21843;SDS011;11084;52.482;9.108;2023-02-15T02:55:56;4.13;;;3.53;;
21843;SDS011;11084;52.482;9.108;2023-02-15T02:58:55;2.87;;;2.07;;
21843;SDS011;11084;52.482;9.108;2023-02-15T03:01:38;2.13;;;1.97;;
21843;SDS011;11084;52.482;9.108;2023-02-15T03:04:31;4.37;;;2.83;;
21843;SDS011;11084;52.482;9.108;2023-02-15T03:07:07;3.23;;;2.00;;
21843;SDS011;11084;52.482;9.108;2023-02-15T03:09:39;3.20;;;2.70;;
21843;SDS011;11084;52.482;9.108;2023-02-15T03:12:13;2.40;;;1.83;;
21843;SDS011;11084;52.482;9.108;2023-02-15T03:14:56;6.03;;;3.10;;
21843;SDS011;11084;52.482;9.108;2023-02-15T03:17:35;5.63;;;2.53;;
21843;SDS011;11084;52.482;9.108;2023-02-15T03:20:07;2.70;;;1.87;;
21843;SDS011;11084;52.482;9.108;2023-02-15T03:23:01;10.07;;;2.77;;
21843;SDS011;11084;52.482;9.108;2023-02-15T03:26:05;3.20;;;2.47;;
21843;SDS011;11084;52.482;9.108;2023-02-15T03:28:35;1.93;;;1.83;;
21843;SDS011;11084;52.482;9.108;2023-02-15T03:31:09;3.40;;;2.33;;
21843;SDS011;11084;52.482;9.108;2023-02-15T03:33:38;2.80;;;2.30;;
21843;SDS011;11084;52.482;9.108;2023-02-15T03:36:20;9.53;;;1.57;;
21843;SDS011;11084;52.482;9.108;2023-02-15T03:45:07;3.17;;;2.20;;
21843;SDS011;11084;52.482;9.108;2023-02-15T03:47:41;4.70;;;2.83;;
21843;SDS011;11084;52.482;9.108;2023-02-15T03:50:16;8.73;;;2.53;;
21843;SDS011;11084;52.482;9.108;2023-02-15T03:53:09;3.33;;;1.70;;
21843;SDS011;11084;52.482;9.108;2023-02-15T03:55:39;2.00;;;1.83;;
21843;SDS011;11084;52.482;9.108;2023-02-15T03:58:06;3.67;;;2.07;;
21843;SDS011;11084;52.482;9.108;2023-02-15T04:00:57;3.20;;;2.07;;
21843;SDS011;11084;52.482;9.108;2023-02-15T04:04:05;2.20;;;2.10;;
21843;SDS011;11084;52.482;9.108;2023-02-15T04:06:36;2.47;;;2.27;;
21843;SDS011;11084;52.482;9.108;2023-02-15T04:09:02;3.73;;;1.80;;
21843;SDS011;11084;52.482;9.108;2023-02-15T04:11:47;10.47;;;1.70;;
21843;SDS011;11084;52.482;9.108;2023-02-15T04:14:13;3.13;;;1.90;;
21843;SDS011;11084;52.482;9.108;2023-02-15T04:16:57;1.60;;;1.50;;
21843;SDS011;11084;52.482;9.108;2023-02-15T04:19:23;4.43;;;1.93;;
21843;SDS011;11084;52.482;9.108;2023-02-15T04:22:08;3.30;;;2.37;;
21843;SDS011;11084;52.482;9.108;2023-02-15T04:24:52;2.27;;;2.03;;
21843;SDS011;11084;52.482;9.108;2023-02-15T04:27:39;2.47;;;2.27;;
21843;SDS011;11084;52.482;9.108;2023-02-15T04:30:08;1.77;;;1.67;;
21843;SDS011;11084;52.482;9.108;2023-02-15T04:32:35;1.53;;;1.43;;
21843;SDS011;11084;52.482;9.108;2023-02-15T04:35:02;3.33;;;2.63;;
21843;SDS011;11084;52.482;9.108;2023-02-15T04:37:28;2.90;;;2.17;;
21843;SDS011;11084;52.482;9.108;2023-02-15T04:39:54;2.60;;;2.23;;
21843;SDS011;11084;52.482;9.108;2023-02-15T04:42:24;5.07;;;2.43;;
21843;SDS011;11084;52.482;9.108;2023-02-15T04:44:51;2.40;;;2.20;;
21843;SDS011;11084;52.482;9.108;2023-02-15T04:47:18;3.40;;;2.73;;
21843;SDS011;11084;52.482;9.108;2023-02-15T04:49:44;4.20;;;2.50;;
21843;SDS011;11084;52.482;9.108;2023-02-15T04:52:11;3.17;;;2.50;;
21843;SDS011;11084;52.482;9.108;2023-02-15T04:54:36;1.87;;;1.77;;
21843;SDS011;11084;52.482;9.108;2023-02-15T04:57:03;2.47;;;2.27;;
21843;SDS011;11084;52.482;9.108;2023-02-15T04:59:30;2.50;;;1.93;;
21843;SDS011;11084;52.482;9.108;2023-02-15T05:01:57;4.17;;;2.27;;
21843;SDS011;11084;52.482;9.108;2023-02-15T05:04:23;1.50;;;1.30;;
21843;SDS011;11084;52.482;9.108;2023-02-15T05:06:49;8.43;;;3.27;;
21843;SDS011;11084;52.482;9.108;2023-02-15T05:09:15;1.43;;;1.33;;
21843;SDS011;11084;52.482;9.108;2023-02-15T05:11:42;8.50;;;2.63;;
21843;SDS011;11084;52.482;9.108;2023-02-15T05:14:08;10.20;;;3.90;;
21843;SDS011;11084;52.482;9.108;2023-02-15T05:16:34;3.80;;;2.77;;
21843;SDS011;11084;52.482;9.108;2023-02-15T05:19:00;3.67;;;2.37;;
21843;SDS011;11084;52.482;9.108;2023-02-15T05:21:26;7.63;;;2.17;;
21843;SDS011;11084;52.482;9.108;2023-02-15T05:23:53;3.70;;;2.67;;
21843;SDS011;11084;52.482;9.108;2023-02-15T05:26:20;3.43;;;2.50;;
21843;SDS011;11084;52.482;9.108;2023-02-15T05:29:07;4.53;;;3.33;;
21843;SDS011;11084;52.482;9.108;2023-02-15T05:31:34;4.33;;;2.87;;
21843;SDS011;11084;52.482;9.108;2023-02-15T05:34:00;2.27;;;1.83;;
21843;SDS011;11084;52.482;9.108;2023-02-15T05:36:27;4.37;;;2.83;;
21843;SDS011;11084;52.482;9.108;2023-02-15T05:38:54;4.13;;;2.93;;
21843;SDS011;11084;52.482;9.108;2023-02-15T05:41:20;2.67;;;2.07;;
21843;SDS011;11084;52.482;9.108;2023-02-15T05:43:47;3.50;;;2.93;;
21843;SDS011;11084;52.482;9.108;2023-02-15T05:46:13;4.53;;;2.80;;
21843;SDS011;11084;52.482;9.108;2023-02-15T05:48:39;1.70;;;1.37;;
21843;SDS011;11084;52.482;9.108;2023-02-15T05:51:09;3.87;;;2.20;;
21843;SDS011;11084;52.482;9.108;2023-02-15T05:53:39;2.90;;;2.27;;
21843;SDS011;11084;52.482;9.108;2023-02-15T05:56:06;4.73;;;3.03;;
21843;SDS011;11084;52.482;9.108;2023-02-15T05:58:39;3.30;;;2.30;;
21843;SDS011;11084;52.482;9.108;2023-02-15T06:01:10;4.20;;;2.90;;
21843;SDS011;11084;52.482;9.108;2023-02-15T06:03:44;4.93;;;1.93;;
21843;SDS011;11084;52.482;9.108;2023-02-15T06:06:11;4.47;;;2.73;;
21843;SDS011;11084;52.482;9.108;2023-02-15T06:08:37;9.20;;;2.73;;
21843;SDS011;11084;52.482;9.108;2023-02-15T06:11:04;3.53;;;2.53;;
21843;SDS011;11084;52.482;9.108;2023-02-15T06:13:31;21.47;;;3.53;;
21843;SDS011;11084;52.482;9.108;2023-02-15T06:15:58;4.70;;;2.50;;
21843;SDS011;11084;52.482;9.108;2023-02-15T06:18:24;4.23;;;2.47;;
21843;SDS011;11084;52.482;9.108;2023-02-15T06:20:50;2.93;;;2.37;;
21843;SDS011;11084;52.482;9.108;2023-02-15T06:23:17;3.27;;;2.77;;
21843;SDS011;11084;52.482;9.108;2023-02-15T06:25:44;3.63;;;2.73;;
21843;SDS011;11084;52.482;9.108;2023-02-15T06:28:11;4.47;;;1.80;;
21843;SDS011;11084;52.482;9.108;2023-02-15T06:30:38;2.60;;;2.17;;
21843;SDS011;11084;52.482;9.108;2023-02-15T06:33:04;3.10;;;2.13;;
21843;SDS011;11084;52.482;9.108;2023-02-15T06:35:30;6.50;;;3.63;;
21843;SDS011;11084;52.482;9.108;2023-02-15T06:37:56;2.67;;;1.80;;
21843;SDS011;11084;52.482;9.108;2023-02-15T06:40:22;2.47;;;2.13;;
21843;SDS011;11084;52.482;9.108;2023-02-15T06:42:48;2.60;;;2.17;;
21843;SDS011;11084;52.482;9.108;2023-02-15T06:45:14;3.63;;;2.50;;
21843;SDS011;11084;52.482;9.108;2023-02-15T06:47:41;2.93;;;2.07;;
21843;SDS011;11084;52.482;9.108;2023-02-15T06:50:07;2.53;;;2.33;;
21843;SDS011;11084;52.482;9.108;2023-02-15T06:52:34;1.97;;;1.37;;
21843;SDS011;11084;52.482;9.108;2023-02-15T06:55:00;8.60;;;3.03;;
21843;SDS011;11084;52.482;9.108;2023-02-15T06:57:26;4.03;;;2.87;;
21843;SDS011;11084;52.482;9.108;2023-02-15T06:59:52;4.27;;;2.67;;
21843;SDS011;11084;52.482;9.108;2023-02-15T07:02:18;5.23;;;3.03;;
21843;SDS011;11084;52.482;9.108;2023-02-15T07:04:47;3.80;;;3.13;;
21843;SDS011;11084;52.482;9.108;2023-02-15T07:07:13;4.63;;;3.23;;
21843;SDS011;11084;52.482;9.108;2023-02-15T07:09:40;4.37;;;3.20;;
21843;SDS011;11084;52.482;9.108;2023-02-15T07:12:06;9.70;;;5.03;;
21843;SDS011;11084;52.482;9.108;2023-02-15T07:14:51;10.63;;;4.73;;
21843;SDS011;11084;52.482;9.108;2023-02-15T07:17:17;7.87;;;4.10;;
21843;SDS011;11084;52.482;9.108;2023-02-15T07:19:43;7.33;;;4.20;;
21843;SDS011;11084;52.482;9.108;2023-02-15T07:22:09;12.33;;;5.67;;
21843;SDS011;11084;52.482;9.108;2023-02-15T07:24:35;20.17;;;5.50;;
21843;SDS011;11084;52.482;9.108;2023-02-15T07:27:01;12.47;;;5.37;;
21843;SDS011;11084;52.482;9.108;2023-02-15T07:29:27;13.07;;;5.70;;
21843;SDS011;11084;52.482;9.108;2023-02-15T07:31:53;9.63;;;4.97;;
21843;SDS011;11084;52.482;9.108;2023-02-15T07:34:20;6.67;;;3.93;;
21843;SDS011;11084;52.482;9.108;2023-02-15T07:36:46;7.17;;;3.87;;
21843;SDS011;11084;52.482;9.108;2023-02-15T07:39:12;12.40;;;3.97;;
21843;SDS011;11084;52.482;9.108;2023-02-15T07:41:38;8.20;;;4.23;;
21843;SDS011;11084;52.482;9.108;2023-02-15T07:44:13;9.33;;;4.10;;
21843;SDS011;11084;52.482;9.108;2023-02-15T07:46:40;7.03;;;3.87;;
21843;SDS011;11084;52.482;9.108;2023-02-15T07:49:06;6.33;;;3.67;;
21843;SDS011;11084;52.482;9.108;2023-02-15T07:51:33;6.53;;;3.10;;
21843;SDS011;11084;52.482;9.108;2023-02-15T07:53:59;4.77;;;3.10;;
21843;SDS011;11084;52.482;9.108;2023-02-15T07:56:25;7.13;;;4.00;;
21843;SDS011;11084;52.482;9.108;2023-02-15T07:58:51;7.13;;;3.03;;
21843;SDS011;11084;52.482;9.108;2023-02-15T08:01:27;5.23;;;3.37;;
21843;SDS011;11084;52.482;9.108;2023-02-15T08:03:57;6.40;;;3.00;;
21843;SDS011;11084;52.482;9.108;2023-02-15T08:06:24;6.00;;;3.57;;
21843;SDS011;11084;52.482;9.108;2023-02-15T08:08:53;5.97;;;3.40;;
21843;SDS011;11084;52.482;9.108;2023-02-15T08:11:23;6.23;;;3.83;;
21843;SDS011;11084;52.482;9.108;2023-02-15T08:13:58;5.53;;;3.67;;
21843;SDS011;11084;52.482;9.108;2023-02-15T08:16:53;4.93;;;3.47;;
21843;SDS011;11084;52.482;9.108;2023-02-15T08:19:22;8.87;;;4.57;;
21843;SDS011;11084;52.482;9.108;2023-02-15T08:22:15;11.93;;;4.60;;
21843;SDS011;11084;52.482;9.108;2023-02-15T08:24:40;8.90;;;4.90;;
21843;SDS011;11084;52.482;9.108;2023-02-15T08:27:07;18.20;;;4.60;;
21843;SDS011;11084;52.482;9.108;2023-02-15T08:29:36;9.67;;;5.23;;
21843;SDS011;11084;52.482;9.108;2023-02-15T08:32:04;11.27;;;5.43;;
21843;SDS011;11084;52.482;9.108;2023-02-15T08:34:34;9.43;;;5.67;;
21843;SDS011;11084;52.482;9.108;2023-02-15T08:37:04;10.10;;;5.17;;
21843;SDS011;11084;52.482;9.108;2023-02-15T08:39:31;9.80;;;5.20;;
21843;SDS011;11084;52.482;9.108;2023-02-15T08:41:57;8.80;;;5.07;;
21843;SDS011;11084;52.482;9.108;2023-02-15T08:44:23;10.00;;;5.33;;
21843;SDS011;11084;52.482;9.108;2023-02-15T08:46:49;10.07;;;5.63;;
21843;SDS011;11084;52.482;9.108;2023-02-15T08:49:17;10.37;;;4.73;;
21843;SDS011;11084;52.482;9.108;2023-02-15T08:51:45;9.80;;;4.87;;
21843;SDS011;11084;52.482;9.108;2023-02-15T08:54:14;12.47;;;6.20;;
21843;SDS011;11084;52.482;9.108;2023-02-15T08:56:43;31.33;;;15.03;;
21843;SDS011;11084;52.482;9.108;2023-02-15T08:59:14;15.53;;;8.77;;
21843;SDS011;11084;52.482;9.108;2023-02-15T09:01:43;15.37;;;5.50;;
21843;SDS011;11084;52.482;9.108;2023-02-15T09:04:10;11.90;;;6.60;;
21843;SDS011;11084;52.482;9.108;2023-02-15T09:06:38;14.20;;;6.60;;
21843;SDS011;11084;52.482;9.108;2023-02-15T09:09:06;9.07;;;5.30;;
21843;SDS011;11084;52.482;9.108;2023-02-15T09:11:34;10.57;;;5.77;;
21843;SDS011;11084;52.482;9.108;2023-02-15T09:14:09;9.00;;;5.17;;
21843;SDS011;11084;52.482;9.108;2023-02-15T09:16:41;7.70;;;4.67;;
21843;SDS011;11084;52.482;9.108;2023-02-15T09:19:14;8.70;;;5.30;;
21843;SDS011;11084;52.482;9.108;2023-02-15T09:21:41;10.27;;;5.27;;
21843;SDS011;11084;52.482;9.108;2023-02-15T09:24:08;14.00;;;5.40;;
21843;SDS011;11084;52.482;9.108;2023-02-15T09:26:38;11.13;;;4.83;;
21843;SDS011;11084;52.482;9.108;2023-02-15T09:29:07;8.83;;;5.00;;
21843;SDS011;11084;52.482;9.108;2023-02-15T09:31:38;11.63;;;5.03;;
21843;SDS011;11084;52.482;9.108;2023-02-15T09:34:09;7.90;;;5.30;;
21843;SDS011;11084;52.482;9.108;2023-02-15T09:36:37;7.07;;;4.00;;
21843;SDS011;11084;52.482;9.108;2023-02-15T09:42:00;8.60;;;5.23;;
21843;SDS011;11084;52.482;9.108;2023-02-15T09:48:23;9.23;;;4.30;;
21843;SDS011;11084;52.482;9.108;2023-02-15T09:51:26;9.67;;;4.53;;
21843;SDS011;11084;52.482;9.108;2023-02-15T09:57:08;6.70;;;4.50;;
21843;SDS011;11084;52.482;9.108;2023-02-15T10:00:36;10.77;;;4.50;;
21843;SDS011;11084;52.482;9.108;2023-02-15T10:22:50;8.00;;;3.53;;
21843;SDS011;11084;52.482;9.108;2023-02-15T10:26:17;13.43;;;4.23;;
21843;SDS011;11084;52.482;9.108;2023-02-15T10:34:11;8.63;;;3.53;;
21843;SDS011;11084;52.482;9.108;2023-02-15T10:37:11;10.03;;;3.43;;
21843;SDS011;11084;52.482;9.108;2023-02-15T10:57:32;10.83;;;4.00;;
21843;SDS011;11084;52.482;9.108;2023-02-15T11:00:36;7.70;;;3.93;;
21843;SDS011;11084;52.482;9.108;2023-02-15T11:06:48;5.83;;;3.53;;
21843;SDS011;11084;52.482;9.108;2023-02-15T11:09:19;7.27;;;3.87;;
21843;SDS011;11084;52.482;9.108;2023-02-15T11:11:53;8.43;;;4.50;;
21843;SDS011;11084;52.482;9.108;2023-02-15T11:17:28;8.17;;;3.87;;
21843;SDS011;11084;52.482;9.108;2023-02-15T11:22:55;8.03;;;3.80;;
21843;SDS011;11084;52.482;9.108;2023-02-15T11:25:27;6.73;;;3.83;;
21843;SDS011;11084;52.482;9.108;2023-02-15T11:28:03;7.37;;;3.80;;
21843;SDS011;11084;52.482;9.108;2023-02-15T11:30:44;8.43;;;4.77;;
21843;SDS011;11084;52.482;9.108;2023-02-15T11:33:27;8.43;;;3.73;;
21843;SDS011;11084;52.482;9.108;2023-02-15T11:36:03;10.33;;;4.27;;
21843;SDS011;11084;52.482;9.108;2023-02-15T11:38:42;9.50;;;4.23;;
21843;SDS011;11084;52.482;9.108;2023-02-15T11:41:11;7.53;;;4.00;;
21843;SDS011;11084;52.482;9.108;2023-02-15T11:43:46;9.77;;;4.63;;
21843;SDS011;11084;52.482;9.108;2023-02-15T11:46:22;7.83;;;4.30;;
21843;SDS011;11084;52.482;9.108;2023-02-15T11:48:48;10.33;;;4.17;;
21843;SDS011;11084;52.482;9.108;2023-02-15T11:51:16;9.00;;;5.10;;
21843;SDS011;11084;52.482;9.108;2023-02-15T11:53:44;10.60;;;4.67;;
21843;SDS011;11084;52.482;9.108;2023-02-15T11:56:30;16.50;;;4.83;;
21843;SDS011;11084;52.482;9.108;2023-02-15T11:58:58;9.67;;;4.87;;
21843;SDS011;11084;52.482;9.108;2023-02-15T12:01:38;14.00;;;5.20;;
21843;SDS011;11084;52.482;9.108;2023-02-15T12:06:59;9.30;;;4.30;;
21843;SDS011;11084;52.482;9.108;2023-02-15T12:14:52;11.10;;;4.37;;
21843;SDS011;11084;52.482;9.108;2023-02-15T12:17:28;11.67;;;5.03;;
21843;SDS011;11084;52.482;9.108;2023-02-15T12:20:01;9.93;;;4.27;;
21843;SDS011;11084;52.482;9.108;2023-02-15T12:22:33;8.80;;;4.60;;
21843;SDS011;11084;52.482;9.108;2023-02-15T12:25:03;9.90;;;4.93;;
21843;SDS011;11084;52.482;9.108;2023-02-15T12:28:44;9.13;;;4.20;;
21843;SDS011;11084;52.482;9.108;2023-02-15T12:31:39;12.93;;;5.13;;
21843;SDS011;11084;52.482;9.108;2023-02-15T12:34:13;9.67;;;5.03;;
21843;SDS011;11084;52.482;9.108;2023-02-15T12:36:53;11.13;;;4.60;;
21843;SDS011;11084;52.482;9.108;2023-02-15T12:44:31;9.67;;;4.97;;
21843;SDS011;11084;52.482;9.108;2023-02-15T12:49:32;11.50;;;4.97;;
21843;SDS011;11084;52.482;9.108;2023-02-15T12:52:02;14.10;;;5.03;;
21843;SDS011;11084;52.482;9.108;2023-02-15T12:54:49;10.40;;;5.23;;
21843;SDS011;11084;52.482;9.108;2023-02-15T12:59:54;13.47;;;6.67;;
21843;SDS011;11084;52.482;9.108;2023-02-15T13:02:27;12.30;;;4.97;;
21843;SDS011;11084;52.482;9.108;2023-02-15T13:05:34;14.00;;;5.37;;
21843;SDS011;11084;52.482;9.108;2023-02-15T13:08:10;8.97;;;4.60;;
21843;SDS011;11084;52.482;9.108;2023-02-15T13:10:57;8.03;;;5.27;;
21843;SDS011;11084;52.482;9.108;2023-02-15T13:13:53;14.13;;;6.37;;
21843;SDS011;11084;52.482;9.108;2023-02-15T13:16:26;11.07;;;5.77;;
21843;SDS011;11084;52.482;9.108;2023-02-15T13:19:09;15.03;;;6.10;;
21843;SDS011;11084;52.482;9.108;2023-02-15T13:21:44;11.17;;;6.40;;
21843;SDS011;11084;52.482;9.108;2023-02-15T13:26:55;9.23;;;5.00;;
21843;SDS011;11084;52.482;9.108;2023-02-15T13:29:33;16.03;;;5.57;;
21843;SDS011;11084;52.482;9.108;2023-02-15T13:32:10;9.40;;;5.40;;
21843;SDS011;11084;52.482;9.108;2023-02-15T13:34:47;18.70;;;6.20;;
21843;SDS011;11084;52.482;9.108;2023-02-15T13:37:20;11.53;;;5.60;;
21843;SDS011;11084;52.482;9.108;2023-02-15T13:40:18;23.87;;;7.70;;
21843;SDS011;11084;52.482;9.108;2023-02-15T13:43:05;12.63;;;6.30;;
21843;SDS011;11084;52.482;9.108;2023-02-15T14:12:38;12.80;;;5.73;;
21843;SDS011;11084;52.482;9.108;2023-02-15T14:15:25;9.10;;;5.03;;
21843;SDS011;11084;52.482;9.108;2023-02-15T14:18:25;13.23;;;6.10;;
21843;SDS011;11084;52.482;9.108;2023-02-15T14:23:48;10.70;;;4.70;;
21843;SDS011;11084;52.482;9.108;2023-02-15T14:26:44;10.83;;;4.80;;
21843;SDS011;11084;52.482;9.108;2023-02-15T14:29:46;10.23;;;5.10;;
21843;SDS011;11084;52.482;9.108;2023-02-15T14:35:03;11.70;;;5.80;;
21843;SDS011;11084;52.482;9.108;2023-02-15T14:49:44;10.87;;;4.73;;
21843;SDS011;11084;52.482;9.108;2023-02-15T14:52:10;10.67;;;5.17;;
21843;SDS011;11084;52.482;9.108;2023-02-15T14:59:39;20.37;;;5.67;;
21843;SDS011;11084;52.482;9.108;2023-02-15T15:02:16;15.33;;;5.57;;
21843;SDS011;11084;52.482;9.108;2023-02-15T15:10:00;14.17;;;5.87;;
21843;SDS011;11084;52.482;9.108;2023-02-15T15:12:43;12.67;;;4.87;;
21843;SDS011;11084;52.482;9.108;2023-02-15T15:20:45;15.40;;;6.60;;
21843;SDS011;11084;52.482;9.108;2023-02-15T15:25:46;12.63;;;5.37;;
21843;SDS011;11084;52.482;9.108;2023-02-15T15:46:11;14.70;;;5.47;;
21843;SDS011;11084;52.482;9.108;2023-02-15T15:48:42;9.43;;;4.60;;
21843;SDS011;11084;52.482;9.108;2023-02-15T15:53:49;12.93;;;5.10;;
21843;SDS011;11084;52.482;9.108;2023-02-15T15:56:22;17.50;;;5.40;;
21843;SDS011;11084;52.482;9.108;2023-02-15T15:58:57;10.83;;;4.70;;
21843;SDS011;11084;52.482;9.108;2023-02-15T16:01:31;7.93;;;4.63;;
21843;SDS011;11084;52.482;9.108;2023-02-15T16:04:10;8.03;;;4.37;;
21843;SDS011;11084;52.482;9.108;2023-02-15T16:07:13;13.80;;;4.90;;
21843;SDS011;11084;52.482;9.108;2023-02-15T16:12:29;10.77;;;4.77;;
21843;SDS011;11084;52.482;9.108;2023-02-15T16:14:58;7.73;;;3.37;;
21843;SDS011;11084;52.482;9.108;2023-02-15T16:17:30;11.07;;;4.93;;
21843;SDS011;11084;52.482;9.108;2023-02-15T16:20:01;9.23;;;5.10;;
21843;SDS011;11084;52.482;9.108;2023-02-15T16:22:53;10.10;;;5.27;;
21843;SDS011;11084;52.482;9.108;2023-02-15T16:29:01;14.60;;;6.27;;
21843;SDS011;11084;52.482;9.108;2023-02-15T16:31:27;20.40;;;7.47;;
21843;SDS011;11084;52.482;9.108;2023-02-15T16:33:53;17.07;;;6.73;;
21843;SDS011;11084;52.482;9.108;2023-02-15T16:36:24;19.23;;;8.17;;
21843;SDS011;11084;52.482;9.108;2023-02-15T16:44:18;8.00;;;4.47;;
21843;SDS011;11084;52.482;9.108;2023-02-15T16:46:54;9.63;;;5.03;;
21843;SDS011;11084;52.482;9.108;2023-02-15T16:51:53;13.43;;;4.77;;
21843;SDS011;11084;52.482;9.108;2023-02-15T16:54:23;8.97;;;4.70;;
21843;SDS011;11084;52.482;9.108;2023-02-15T16:56:51;9.47;;;4.40;;
21843;SDS011;11084;52.482;9.108;2023-02-15T16:59:25;9.00;;;4.40;;
21843;SDS011;11084;52.482;9.108;2023-02-15T17:02:16;8.53;;;4.13;;
21843;SDS011;11084;52.482;9.108;2023-02-15T17:04:45;8.27;;;4.77;;
21843;SDS011;11084;52.482;9.108;2023-02-15T17:13:00;7.70;;;4.47;;
21843;SDS011;11084;52.482;9.108;2023-02-15T17:18:26;12.10;;;5.43;;
21843;SDS011;11084;52.482;9.108;2023-02-15T17:20:58;12.57;;;4.80;;
21843;SDS011;11084;52.482;9.108;2023-02-15T17:23:34;11.27;;;4.00;;
21843;SDS011;11084;52.482;9.108;2023-02-15T17:26:40;9.37;;;4.67;;
21843;SDS011;11084;52.482;9.108;2023-02-15T17:29:02;8.27;;;3.97;;
21843;SDS011;11084;52.482;9.108;2023-02-15T17:31:46;7.27;;;4.30;;
21843;SDS011;11084;52.482;9.108;2023-02-15T17:37:59;11.27;;;5.00;;
21843;SDS011;11084;52.482;9.108;2023-02-15T17:40:47;10.43;;;3.93;;
21843;SDS011;11084;52.482;9.108;2023-02-15T17:42:58;8.30;;;4.07;;
21843;SDS011;11084;52.482;9.108;2023-02-15T17:45:30;8.17;;;4.00;;
21843;SDS011;11084;52.482;9.108;2023-02-15T17:47:59;8.93;;;4.43;;
21843;SDS011;11084;52.482;9.108;2023-02-15T17:50:29;11.47;;;3.80;;
21843;SDS011;11084;52.482;9.108;2023-02-15T17:52:56;6.33;;;3.80;;
21843;SDS011;11084;52.482;9.108;2023-02-15T17:55:24;12.47;;;4.07;;
21843;SDS011;11084;52.482;9.108;2023-02-15T17:57:59;12.90;;;4.43;;
21843;SDS011;11084;52.482;9.108;2023-02-15T18:00:29;10.73;;;4.17;;
21843;SDS011;11084;52.482;9.108;2023-02-15T18:03:15;11.10;;;4.90;;
21843;SDS011;11084;52.482;9.108;2023-02-15T18:06:00;11.23;;;3.97;;
21843;SDS011;11084;52.482;9.108;2023-02-15T18:08:45;7.80;;;4.73;;
21843;SDS011;11084;52.482;9.108;2023-02-15T18:11:30;9.03;;;4.37;;
21843;SDS011;11084;52.482;9.108;2023-02-15T18:14:08;7.70;;;4.13;;
21843;SDS011;11084;52.482;9.108;2023-02-15T18:16:36;8.10;;;4.43;;
21843;SDS011;11084;52.482;9.108;2023-02-15T18:22:14;6.57;;;3.40;;
21843;SDS011;11084;52.482;9.108;2023-02-15T18:24:43;7.90;;;4.00;;
21843;SDS011;11084;52.482;9.108;2023-02-15T18:27:12;7.00;;;3.63;;
21843;SDS011;11084;52.482;9.108;2023-02-15T18:29:40;8.07;;;3.93;;
21843;SDS011;11084;52.482;9.108;2023-02-15T18:32:07;9.33;;;4.27;;
21843;SDS011;11084;52.482;9.108;2023-02-15T18:34:41;12.20;;;4.63;;
21843;SDS011;11084;52.482;9.108;2023-02-15T18:37:16;14.60;;;4.37;;
21843;SDS011;11084;52.482;9.108;2023-02-15T18:39:47;8.97;;;4.07;;
21843;SDS011;11084;52.482;9.108;2023-02-15T18:42:19;8.87;;;4.33;;
21843;SDS011;11084;52.482;9.108;2023-02-15T18:44:55;7.80;;;4.50;;
21843;SDS011;11084;52.482;9.108;2023-02-15T18:47:24;9.70;;;4.87;;
21843;SDS011;11084;52.482;9.108;2023-02-15T18:49:51;7.47;;;4.20;;
21843;SDS011;11084;52.482;9.108;2023-02-15T18:52:21;6.13;;;3.30;;
21843;SDS011;11084;52.482;9.108;2023-02-15T18:54:52;11.77;;;3.43;;
21843;SDS011;11084;52.482;9.108;2023-02-15T18:57:22;5.50;;;3.43;;
21843;SDS011;11084;52.482;9.108;2023-02-15T18:59:49;5.47;;;3.27;;
21843;SDS011;11084;52.482;9.108;2023-02-15T19:02:16;9.73;;;4.33;;
21843;SDS011;11084;52.482;9.108;2023-02-15T19:04:43;6.03;;;4.00;;